Time;durP1;ratioP1;P1;durP2;ratioP2;P2;SDS_P1;SDS_P2;PMS_P1;PMS_P2;Temp;Humidity;BMP_temperature;BMP_pressure;BME280_temperature;BME280_humidity;BME280_pressure;Samples;Min_cycle;Max_cycle;Signal;HPM_P1;HPM_P2
2022/02/17 00:01:04;;;;;;;12.38;2.85;;;;;;;11.01;100.00;99032.53;5073677;28;20139;-46
2022/02/17 00:03:34;;;;;;;11.32;2.20;;;;;;;11.01;100.00;99024.66;5073883;28;20511;-50
2022/02/17 00:06:02;;;;;;;10.75;2.28;;;;;;;11.00;100.00;99044.84;5073684;28;20079;-55
2022/02/17 00:08:31;;;;;;;11.93;1.95;;;;;;;10.97;100.00;99034.63;5073613;28;20376;-54
2022/02/17 00:10:59;;;;;;;10.40;1.90;;;;;;;10.97;100.00;99024.91;5073541;28;20045;-55
2022/02/17 00:13:27;;;;;;;12.30;2.15;;;;;;;10.94;100.00;99048.88;5071043;28;20048;-55
2022/02/17 00:15:57;;;;;;;12.27;1.60;;;;;;;10.97;100.00;99030.19;5067575;28;20072;-56
2022/02/17 00:18:25;;;;;;;10.25;1.63;;;;;;;11.03;100.00;99043.72;5072884;28;20094;-56
2022/02/17 00:20:55;;;;;;;8.88;1.85;;;;;;;10.99;100.00;99041.41;5069627;28;20040;-55
2022/02/17 00:23:24;;;;;;;13.65;2.92;;;;;;;11.01;100.00;99036.00;5070979;28;20101;-54
2022/02/17 00:25:54;;;;;;;10.52;2.08;;;;;;;10.96;100.00;99036.44;5073575;28;20052;-47
2022/02/17 00:28:22;;;;;;;12.30;1.80;;;;;;;10.93;100.00;99055.13;5073268;28;20044;-46
2022/02/17 00:30:50;;;;;;;9.90;1.73;;;;;;;10.86;100.00;99054.06;5067429;28;20556;-47
2022/02/17 00:33:19;;;;;;;9.82;1.65;;;;;;;10.91;100.00;99061.53;5070154;28;20048;-45
2022/02/17 00:35:47;;;;;;;10.93;2.65;;;;;;;10.84;100.00;99069.16;5073274;28;20048;-46
2022/02/17 00:38:15;;;;;;;9.60;1.80;;;;;;;10.79;100.00;99076.66;5073251;28;20487;-49
2022/02/17 00:40:44;;;;;;;11.63;2.00;;;;;;;10.79;100.00;99071.38;5072959;28;20418;-47
2022/02/17 00:43:13;;;;;;;9.68;1.77;;;;;;;10.76;100.00;99074.31;5073103;28;20128;-45
2022/02/17 00:45:41;;;;;;;10.20;2.00;;;;;;;10.72;100.00;99070.31;5072970;28;20487;-46
2022/02/17 00:48:09;;;;;;;10.23;1.92;;;;;;;10.70;100.00;99064.38;5072801;28;20051;-45
2022/02/17 00:50:37;;;;;;;10.05;1.80;;;;;;;10.70;100.00;99070.44;5072859;28;20090;-45
2022/02/17 00:53:05;;;;;;;14.35;2.63;;;;;;;10.67;100.00;99085.69;5071591;28;20054;-48
2022/02/17 00:55:33;;;;;;;9.27;2.05;;;;;;;10.67;100.00;99083.06;5071719;28;20044;-47
2022/02/17 00:58:01;;;;;;;13.93;2.22;;;;;;;10.62;100.00;99062.44;5069350;28;20094;-47
2022/02/17 01:00:31;;;;;;;9.13;1.67;;;;;;;10.57;100.00;99065.50;5068309;28;20056;-55
2022/02/17 01:02:59;;;;;;;10.35;2.92;;;;;;;10.57;100.00;99062.88;5072365;28;20498;-54
2022/02/17 01:05:28;;;;;;;12.20;3.28;;;;;;;10.50;100.00;99069.69;5071877;28;20106;-54
2022/02/17 01:07:56;;;;;;;8.55;1.83;;;;;;;10.49;100.00;99079.34;5071885;28;20506;-54
2022/02/17 01:10:25;;;;;;;12.35;2.13;;;;;;;10.50;100.00;99072.31;5072478;28;20052;-57
2022/02/17 01:12:53;;;;;;;12.70;2.45;;;;;;;10.45;100.00;99080.63;5071862;28;20052;-57
2022/02/17 01:15:22;;;;;;;19.40;2.80;;;;;;;10.39;100.00;99088.22;5072470;28;20438;-57
2022/02/17 01:17:51;;;;;;;12.30;2.63;;;;;;;10.26;100.00;99117.41;5072319;28;20569;-48
2022/02/17 01:20:19;;;;;;;17.33;3.17;;;;;;;10.12;100.00;99126.56;5072520;28;20075;-49
2022/02/17 01:22:47;;;;;;;11.40;2.03;;;;;;;9.97;100.00;99116.47;5072296;28;20064;-55
2022/02/17 01:25:16;;;;;;;6.78;1.40;;;;;;;9.74;100.00;99136.06;5072291;28;20049;-51
2022/02/17 01:27:44;;;;;;;8.05;1.20;;;;;;;9.57;100.00;99142.81;5072391;28;20462;-49
2022/02/17 01:30:13;;;;;;;7.25;1.42;;;;;;;9.42;100.00;99137.09;5069187;28;20124;-56
2022/02/17 01:32:41;;;;;;;8.80;1.40;;;;;;;9.37;100.00;99155.06;5069405;28;20506;-56
2022/02/17 01:35:11;;;;;;;7.80;1.10;;;;;;;9.32;100.00;99152.00;5071655;28;20037;-56
2022/02/17 01:37:41;;;;;;;6.72;1.23;;;;;;;9.33;100.00;99164.16;5072122;28;20045;-47
2022/02/17 01:40:10;;;;;;;9.40;1.98;;;;;;;9.32;100.00;99149.38;5072177;28;20052;-50
2022/02/17 01:42:38;;;;;;;8.32;1.60;;;;;;;9.38;100.00;99151.44;5072418;28;20048;-48
2022/02/17 01:45:09;;;;;;;7.85;1.35;;;;;;;9.39;100.00;99177.56;5072698;28;20041;-48
2022/02/17 01:47:39;;;;;;;11.85;1.58;;;;;;;9.44;100.00;99203.41;5072263;28;20438;-48
2022/02/17 01:50:08;;;;;;;10.75;1.70;;;;;;;9.51;100.00;99209.78;5072073;28;20442;-51
2022/02/17 01:52:37;;;;;;;7.93;1.52;;;;;;;9.50;100.00;99192.38;5072278;28;20067;-48
2022/02/17 01:55:07;;;;;;;13.85;1.90;;;;;;;9.49;100.00;99209.09;5072029;28;20063;-51
2022/02/17 01:57:36;;;;;;;9.77;1.92;;;;;;;9.51;100.00;99219.47;5072365;28;20084;-48
2022/02/17 02:00:06;;;;;;;17.15;3.72;;;;;;;9.58;100.00;99226.66;5072081;28;20422;-46
2022/02/17 02:02:34;;;;;;;16.35;1.92;;;;;;;9.58;100.00;99223.19;5071939;28;20052;-47
2022/02/17 02:05:02;;;;;;;14.80;2.55;;;;;;;9.61;100.00;99226.41;5071859;28;20131;-47
2022/02/17 02:07:30;;;;;;;17.00;2.72;;;;;;;9.69;100.00;99245.91;5071469;28;20047;-45
2022/02/17 02:10:00;;;;;;;22.17;3.05;;;;;;;9.71;100.00;99225.59;5071565;28;20540;-50
2022/02/17 02:12:28;;;;;;;21.60;4.57;;;;;;;9.69;100.00;99264.28;5072005;28;20040;-49
2022/02/17 02:14:58;;;;;;;19.27;3.08;;;;;;;9.73;100.00;99255.97;5071877;28;20068;-47
2022/02/17 02:17:28;;;;;;;21.60;3.20;;;;;;;9.75;100.00;99266.38;5071633;28;20052;-47
2022/02/17 02:19:57;;;;;;;19.25;2.85;;;;;;;9.77;100.00;99272.31;5068676;28;20040;-49
2022/02/17 02:22:29;;;;;;;20.83;3.92;;;;;;;9.77;100.00;99257.38;5070196;28;20803;-49
2022/02/17 02:24:58;;;;;;;16.30;3.15;;;;;;;9.77;100.00;99251.31;5075064;28;20076;-46
2022/02/17 02:27:28;;;;;;;21.08;3.10;;;;;;;9.78;100.00;99295.81;5075708;28;20590;-53
2022/02/17 02:29:57;;;;;;;22.23;3.60;;;;;;;9.78;100.00;99285.31;5075200;28;20047;-54
2022/02/17 02:32:25;;;;;;;22.35;4.50;;;;;;;9.74;100.00;99296.22;5075299;28;20060;-55
2022/02/17 02:34:53;;;;;;;18.30;2.88;;;;;;;9.76;100.00;99304.78;5075443;28;20388;-55
2022/02/17 02:37:21;;;;;;;18.25;3.35;;;;;;;9.71;100.00;99328.81;5075552;28;20060;-55
2022/02/17 02:39:53;;;;;;;21.35;3.60;;;;;;;9.71;100.00;99335.88;5074994;28;20489;-55
2022/02/17 02:42:22;;;;;;;17.13;3.28;;;;;;;9.71;100.00;99341.94;5072080;28;20502;-55
2022/02/17 02:44:52;;;;;;;15.38;2.88;;;;;;;9.69;100.00;99346.47;5071953;28;20156;-54
2022/02/17 02:47:20;;;;;;;14.70;3.28;;;;;;;9.67;100.00;99352.81;5075070;28;20117;-55
2022/02/17 02:49:48;;;;;;;16.60;3.55;;;;;;;9.62;100.00;99355.84;5075325;28;20487;-55
2022/02/17 02:52:16;;;;;;;19.65;3.05;;;;;;;9.64;100.00;99357.38;5075237;28;20049;-55
2022/02/17 02:54:44;;;;;;;14.88;2.47;;;;;;;9.59;100.00;99377.94;5074908;28;20052;-55
2022/02/17 02:57:13;;;;;;;18.52;2.70;;;;;;;9.60;99.07;99373.53;5074993;28;20079;-55
2022/02/17 02:59:44;;;;;;;15.20;2.85;;;;;;;9.66;99.10;99369.53;5074970;28;20044;-55
2022/02/17 03:02:12;;;;;;;17.38;3.25;;;;;;;9.60;99.80;99378.78;5072314;28;20055;-55
2022/02/17 03:04:40;;;;;;;26.13;3.42;;;;;;;9.55;100.00;99379.16;5071375;28;20037;-54
2022/02/17 03:07:08;;;;;;;19.83;3.92;;;;;;;9.52;100.00;99382.03;5073101;28;20063;-56
2022/02/17 03:09:36;;;;;;;16.23;2.85;;;;;;;9.52;100.00;99384.66;5074063;28;20094;-56
2022/02/17 03:12:05;;;;;;;20.63;3.17;;;;;;;9.50;100.00;99394.44;5073488;28;20053;-55
2022/02/17 03:14:34;;;;;;;21.55;2.63;;;;;;;9.49;100.00;99403.28;5074937;28;20506;-56
2022/02/17 03:17:03;;;;;;;22.10;3.92;;;;;;;9.43;100.00;99390.66;5074967;28;20487;-56
2022/02/17 03:19:31;;;;;;;23.13;3.65;;;;;;;9.41;99.58;99382.94;5074734;28;20055;-53
2022/02/17 03:21:59;;;;;;;15.60;2.25;;;;;;;9.37;95.70;99418.25;5074678;28;20538;-55
2022/02/17 03:24:27;;;;;;;16.73;2.42;;;;;;;9.37;95.23;99431.38;5074651;28;20056;-55
2022/02/17 03:26:56;;;;;;;17.58;2.88;;;;;;;9.38;93.58;99433.06;5074564;28;20060;-53
2022/02/17 03:29:24;;;;;;;15.52;2.95;;;;;;;9.38;93.72;99435.66;5074726;28;20036;-56
2022/02/17 03:31:54;;;;;;;17.58;2.88;;;;;;;9.35;89.06;99429.84;5074434;28;20052;-54
2022/02/17 03:34:24;;;;;;;15.10;2.38;;;;;;;9.29;86.34;99421.50;5071140;28;20079;-54
2022/02/17 03:36:52;;;;;;;10.05;2.25;;;;;;;9.25;85.61;99446.31;5070006;28;20052;-55
2022/02/17 03:39:21;;;;;;;13.93;2.30;;;;;;;9.25;84.95;99441.06;5072608;28;20114;-55
2022/02/17 03:41:49;;;;;;;17.48;2.60;;;;;;;9.22;82.35;99457.06;5070774;28;20041;-56
2022/02/17 03:44:17;;;;;;;11.00;2.30;;;;;;;9.21;82.84;99473.78;5072284;28;20068;-55
2022/02/17 03:46:46;;;;;;;16.50;2.05;;;;;;;9.17;81.86;99482.84;5073915;28;20399;-48
2022/02/17 03:49:15;;;;;;;12.93;2.38;;;;;;;9.16;80.52;99470.69;5073703;28;20048;-48
2022/02/17 03:51:43;;;;;;;19.42;2.85;;;;;;;9.08;82.64;99476.56;5074129;28;20040;-46
2022/02/17 03:54:11;;;;;;;14.50;2.33;;;;;;;9.01;81.32;99516.50;5073945;28;20514;-44
2022/02/17 03:56:39;;;;;;;16.05;2.25;;;;;;;8.97;80.63;99502.78;5073998;28;20047;-45
2022/02/17 03:59:08;;;;;;;13.18;2.17;;;;;;;8.93;80.72;99504.84;5073694;28;20052;-46
2022/02/17 04:01:38;;;;;;;13.60;2.35;;;;;;;8.88;80.71;99506.16;5073814;28;20090;-49
2022/02/17 04:04:07;;;;;;;12.32;2.03;;;;;;;8.89;80.52;99523.53;5073879;28;20050;-43
2022/02/17 04:06:37;;;;;;;17.13;3.60;;;;;;;8.85;80.98;99535.22;5073856;28;20128;-46
2022/02/17 04:09:06;;;;;;;10.88;2.13;;;;;;;8.82;81.64;99528.47;5072284;28;20045;-46
2022/02/17 04:11:36;;;;;;;15.23;2.28;;;;;;;8.80;81.55;99532.97;5073677;28;20387;-46
2022/02/17 04:14:04;;;;;;;15.38;2.58;;;;;;;8.82;82.54;99546.81;5073280;28;20059;-45
2022/02/17 04:16:32;;;;;;;16.35;2.60;;;;;;;8.78;82.98;99535.72;5068641;28;20803;-46
2022/02/17 04:19:02;;;;;;;13.38;2.75;;;;;;;8.76;83.20;99535.00;5071167;28;20123;-48
2022/02/17 04:21:30;;;;;;;17.80;2.85;;;;;;;8.76;83.40;99555.16;5073474;28;20040;-46
2022/02/17 04:24:00;;;;;;;13.27;2.00;;;;;;;8.82;82.79;99543.34;5073524;28;20094;-44
2022/02/17 04:26:28;;;;;;;13.15;2.70;;;;;;;8.82;84.09;99548.59;5073397;28;20045;-49
2022/02/17 04:28:57;;;;;;;14.07;2.63;;;;;;;8.80;84.06;99577.53;5073315;28;20079;-46
2022/02/17 04:31:27;;;;;;;13.30;2.70;;;;;;;8.78;84.54;99566.34;5073317;28;20041;-46
2022/02/17 04:33:55;;;;;;;15.35;3.38;;;;;;;8.81;85.48;99573.97;5073170;28;20491;-47
2022/02/17 04:36:23;;;;;;;14.30;2.63;;;;;;;8.79;86.07;99578.50;5073298;28;20510;-44
2022/02/17 04:38:51;;;;;;;18.90;3.17;;;;;;;8.80;86.15;99580.16;5071814;28;20052;-46
2022/02/17 04:44:07;;;;;;;14.65;2.60;;;;;;;8.87;86.51;99615.44;5072996;28;20050;-47
2022/02/17 04:46:36;;;;;;;12.50;2.03;;;;;;;8.86;86.67;99600.69;5070347;28;20052;-44
2022/02/17 04:49:04;;;;;;;16.40;2.63;;;;;;;8.87;87.28;99597.09;5068288;28;20048;-44
2022/02/17 04:51:32;;;;;;;13.45;3.13;;;;;;;8.83;87.95;99598.28;5071858;28;20098;-44
2022/02/17 04:54:00;;;;;;;15.73;2.70;;;;;;;8.84;88.29;99584.22;5072603;28;20052;-44
2022/02/17 04:56:33;;;;;;;17.23;2.40;;;;;;;8.84;88.45;99613.06;5070760;28;20132;-47
2022/02/17 04:59:02;;;;;;;14.35;2.55;;;;;;;8.84;86.71;99620.94;5068370;28;20063;-47
2022/02/17 05:01:30;;;;;;;17.65;2.60;;;;;;;8.85;87.18;99622.59;5071051;28;20047;-46
2022/02/17 05:03:58;;;;;;;16.45;3.17;;;;;;;8.88;86.67;99630.22;5069928;28;20067;-44
2022/02/17 05:06:26;;;;;;;25.95;4.15;;;;;;;8.84;86.62;99656.81;5069389;28;20079;-44
2022/02/17 05:08:54;;;;;;;17.25;3.42;;;;;;;8.86;85.78;99632.16;5072445;28;20059;-48
2022/02/17 05:11:22;;;;;;;19.08;2.97;;;;;;;8.87;84.98;99665.25;5072713;28;21150;-48
2022/02/17 05:13:51;;;;;;;14.73;2.72;;;;;;;8.84;85.09;99652.38;5072801;28;20053;-49
2022/02/17 05:16:19;;;;;;;16.90;2.55;;;;;;;8.85;85.25;99654.06;5068291;28;20048;-47
2022/02/17 05:18:48;;;;;;;17.88;2.78;;;;;;;8.79;84.40;99659.75;5069266;28;20076;-45
2022/02/17 05:21:16;;;;;;;18.70;2.72;;;;;;;8.80;84.35;99664.88;5072230;28;20106;-43
2022/02/17 05:23:44;;;;;;;18.67;2.90;;;;;;;8.77;86.92;99674.78;5070650;28;20059;-49
2022/02/17 05:26:13;;;;;;;22.73;3.15;;;;;;;8.74;86.55;99661.91;5068698;28;20523;-48
2022/02/17 05:28:41;;;;;;;16.65;2.70;;;;;;;8.77;87.03;99674.78;5070934;28;20525;-46
2022/02/17 05:31:10;;;;;;;17.73;3.17;;;;;;;8.71;87.87;99672.63;5072096;28;20064;-46
2022/02/17 05:33:39;;;;;;;24.77;5.38;;;;;;;8.72;87.62;99674.31;5069184;28;20053;-49
2022/02/17 05:36:07;;;;;;;15.20;4.05;;;;;;;8.73;87.12;99684.66;5069133;28;20068;-50
2022/02/17 05:38:35;;;;;;;26.42;4.07;;;;;;;8.71;90.48;99714.56;5072230;28;20056;-46
2022/02/17 05:41:03;;;;;;;20.33;3.28;;;;;;;8.40;97.50;99767.44;5071883;28;20066;-54
2022/02/17 05:43:31;;;;;;;22.35;3.63;;;;;;;7.95;100.00;99749.69;5071964;28;20072;-55
2022/02/17 05:45:59;;;;;;;23.30;4.10;;;;;;;7.88;100.00;99738.00;5071674;28;20044;-45
2022/02/17 05:48:29;;;;;;;16.92;2.47;;;;;;;7.72;100.00;99740.03;5071695;28;20071;-52
2022/02/17 05:50:57;;;;;;;20.05;2.92;;;;;;;7.65;100.00;99764.94;5071540;28;20044;-55
2022/02/17 05:53:27;;;;;;;15.20;2.50;;;;;;;7.55;99.66;99752.53;5071846;28;20041;-53
2022/02/17 05:55:55;;;;;;;17.80;2.47;;;;;;;7.48;100.00;99774.81;5072086;28;20072;-50
2022/02/17 05:58:23;;;;;;;15.25;3.15;;;;;;;7.50;100.00;99761.63;5073104;28;20127;-49
2022/02/17 06:00:51;;;;;;;17.17;2.47;;;;;;;7.44;100.00;99770.75;5075816;28;20097;-49
2022/02/17 06:03:19;;;;;;;9.32;2.08;;;;;;;7.39;100.00;99786.75;5074706;28;20048;-47
2022/02/17 06:05:49;;;;;;;15.05;2.53;;;;;;;7.33;100.00;99775.88;5072711;28;20040;-45
2022/02/17 06:08:17;;;;;;;16.30;2.20;;;;;;;7.41;100.00;99777.00;5075082;28;20049;-46
2022/02/17 06:10:45;;;;;;;17.65;2.78;;;;;;;7.24;100.00;99793.03;5075271;28;20048;-45
2022/02/17 06:13:13;;;;;;;13.40;2.65;;;;;;;7.28;100.00;99784.88;5075057;28;20052;-46
2022/02/17 06:15:41;;;;;;;17.38;4.25;;;;;;;7.31;99.68;99793.44;5070651;28;20040;-44
2022/02/17 06:18:09;;;;;;;12.35;1.75;;;;;;;7.25;97.98;99802.53;5073076;28;20056;-46
2022/02/17 06:20:37;;;;;;;11.45;2.30;;;;;;;7.31;95.86;99816.97;5075578;28;20051;-44
2022/02/17 06:23:07;;;;;;;13.32;2.53;;;;;;;7.33;94.89;99815.94;5075604;28;20083;-45
2022/02/17 06:25:35;;;;;;;13.50;2.22;;;;;;;7.31;96.01;99828.31;5075847;28;20465;-50
2022/02/17 06:28:03;;;;;;;14.43;2.22;;;;;;;7.33;94.23;99830.81;5075633;28;20044;-45
2022/02/17 06:30:32;;;;;;;14.68;2.78;;;;;;;7.26;95.98;99823.38;5075613;28;20045;-45
2022/02/17 06:33:00;;;;;;;9.90;2.22;;;;;;;7.31;95.20;99840.53;5075534;28;20460;-47
2022/02/17 06:35:32;;;;;;;15.75;2.45;;;;;;;7.28;96.18;99850.25;5075653;28;20044;-44
2022/02/17 06:38:01;;;;;;;15.02;2.28;;;;;;;7.40;93.36;99843.38;5075520;28;20063;-47
2022/02/17 06:40:31;;;;;;;12.85;2.10;;;;;;;7.41;92.96;99862.53;5075138;28;20107;-46
2022/02/17 06:43:05;;;;;;;18.00;2.78;;;;;;;7.43;92.60;99848.41;5075369;28;20044;-43
2022/02/17 06:45:36;;;;;;;14.15;2.92;;;;;;;7.44;89.94;99885.84;5075447;28;20103;-47
2022/02/17 06:48:06;;;;;;;15.18;2.10;;;;;;;7.48;86.33;99882.09;5075352;28;20071;-46
2022/02/17 06:50:34;;;;;;;11.32;2.05;;;;;;;7.56;81.70;99890.25;5073982;28;20045;-45
2022/02/17 06:53:03;;;;;;;16.25;2.25;;;;;;;7.53;82.93;99890.47;5075197;28;20044;-46
2022/02/17 06:55:34;;;;;;;15.18;1.70;;;;;;;7.52;84.90;99904.47;5074060;28;20110;-45
2022/02/17 06:58:05;;;;;;;13.48;2.33;;;;;;;7.52;84.93;99891.41;5074956;28;20048;-47
2022/02/17 07:00:34;;;;;;;9.35;1.92;;;;;;;7.53;85.47;99924.47;5075147;28;20053;-47
2022/02/17 07:03:06;;;;;;;10.52;1.98;;;;;;;7.59;81.55;99936.31;5074905;28;20050;-46
2022/02/17 07:05:35;;;;;;;10.18;1.77;;;;;;;7.61;81.78;99937.88;5075141;28;20579;-44
2022/02/17 07:08:03;;;;;;;13.43;2.25;;;;;;;7.66;79.96;99934.94;5074950;28;20048;-46
2022/02/17 07:13:18;;;;;;;11.70;2.13;;;;;;;7.61;79.22;99922.19;5074671;28;20114;-44
2022/02/17 07:15:47;;;;;;;14.02;2.03;;;;;;;7.59;78.57;99949.41;5075189;28;20499;-43
2022/02/17 07:18:16;;;;;;;10.35;1.40;;;;;;;7.60;78.92;99938.00;5073484;28;20536;-43
2022/02/17 07:20:46;;;;;;;7.93;1.63;;;;;;;7.60;76.33;99948.47;5071677;28;20135;-45
2022/02/17 07:23:15;;;;;;;10.75;1.48;;;;;;;7.59;74.49;99975.56;5073472;28;20049;-45
2022/02/17 07:25:45;;;;;;;10.85;1.27;;;;;;;7.64;73.45;99970.03;5074559;28;20064;-43
2022/02/17 07:28:14;;;;;;;6.90;1.08;;;;;;;7.63;72.76;99963.13;5074659;28;20044;-46
2022/02/17 07:30:44;;;;;;;9.50;1.55;;;;;;;7.57;74.46;99972.22;5074588;28;20041;-46
2022/02/17 07:33:12;;;;;;;12.00;1.85;;;;;;;7.57;74.53;99985.31;5074698;28;20048;-46
2022/02/17 07:35:41;;;;;;;12.77;1.50;;;;;;;7.52;75.38;99996.06;5074377;28;20048;-55
2022/02/17 07:38:29;;;;;;;13.10;2.28;;;;;;;7.49;73.79;99988.41;5074181;28;20044;-48
2022/02/17 07:40:58;;;;;;;6.05;1.55;;;;;;;7.48;75.55;100006.84;5074086;28;20083;-56
2022/02/17 07:43:27;;;;;;;9.52;1.50;;;;;;;7.44;75.44;100006.19;5074437;28;20131;-56
2022/02/17 07:45:57;;;;;;;9.02;1.35;;;;;;;7.45;75.82;100031.44;5070527;28;20040;-56
2022/02/17 07:48:25;;;;;;;9.57;1.73;;;;;;;7.47;79.16;100041.78;5071094;28;20534;-44
2022/02/17 07:50:53;;;;;;;10.82;2.47;;;;;;;7.40;82.44;100036.09;5072981;28;20404;-56
2022/02/17 07:53:21;;;;;;;8.80;1.92;;;;;;;7.35;84.18;100046.03;5073858;28;20491;-55
2022/02/17 07:55:49;;;;;;;12.95;1.95;;;;;;;7.40;85.80;100047.44;5074162;28;20044;-55
2022/02/17 07:58:19;;;;;;;10.75;1.60;;;;;;;7.40;86.57;100060.50;5073985;28;20041;-46
2022/02/17 08:00:47;;;;;;;12.13;2.00;;;;;;;7.40;86.57;100067.50;5070028;28;20051;-56
2022/02/17 08:03:18;;;;;;;10.25;1.90;;;;;;;7.45;87.22;100065.44;5070494;28;20504;-55
2022/02/17 08:05:46;;;;;;;14.88;2.35;;;;;;;7.56;86.63;100070.81;5074014;28;20040;-46
2022/02/17 08:08:15;;;;;;;10.25;1.88;;;;;;;7.56;84.31;100089.13;5073874;28;20554;-56
2022/02/17 08:10:43;;;;;;;15.35;2.08;;;;;;;7.60;81.73;100089.78;5073588;28;20049;-45
2022/02/17 08:13:11;;;;;;;11.77;1.60;;;;;;;7.68;81.37;100094.53;5073698;28;20165;-56
2022/02/17 08:15:42;;;;;;;11.25;1.50;;;;;;;7.75;80.76;100093.19;5073662;28;20041;-54
2022/02/17 08:18:10;;;;;;;8.00;1.77;;;;;;;7.79;79.98;100098.09;5070013;28;20056;-46
2022/02/17 08:20:40;;;;;;;13.50;1.90;;;;;;;7.80;80.36;100101.56;5070266;28;20462;-54
2022/02/17 08:23:08;;;;;;;10.38;1.55;;;;;;;7.84;80.10;100113.53;5071825;28;20060;-57
2022/02/17 08:25:36;;;;;;;11.32;1.60;;;;;;;7.79;78.40;100098.09;5069760;28;20052;-55
2022/02/17 08:28:04;;;;;;;11.98;1.95;;;;;;;7.82;79.87;100110.16;5072091;28;20044;-45
2022/02/17 08:30:35;;;;;;;9.98;1.60;;;;;;;7.85;77.15;100137.91;5073257;28;20507;-56
2022/02/17 08:33:06;;;;;;;9.85;1.20;;;;;;;7.87;77.89;100131.63;5073113;28;20063;-46
2022/02/17 08:35:34;;;;;;;10.48;1.60;;;;;;;7.87;74.86;100147.34;5073223;28;20049;-47
2022/02/17 08:38:07;;;;;;;10.77;1.35;;;;;;;7.95;75.14;100137.22;5070849;28;20044;-49
2022/02/17 08:40:35;;;;;;;8.35;1.38;;;;;;;7.98;75.65;100153.69;5069187;28;20113;-47
2022/02/17 08:43:09;;;;;;;7.10;1.38;;;;;;;7.93;75.38;100167.06;5071962;28;20055;-55
2022/02/17 08:45:41;;;;;;;8.23;1.60;;;;;;;7.86;73.37;100152.69;5072937;28;20102;-56
2022/02/17 08:48:12;;;;;;;12.32;2.83;;;;;;;7.85;74.94;100178.00;5072955;28;20040;-55
2022/02/17 08:50:43;;;;;;;10.35;1.77;;;;;;;7.86;74.97;100177.09;5072917;28;20868;-48
2022/02/17 08:53:11;;;;;;;9.32;1.70;;;;;;;7.94;76.79;100187.91;5072639;28;20410;-54
2022/02/17 08:55:52;;;;;;;5.15;1.20;;;;;;;7.87;77.17;100184.00;5072913;28;20383;-57
2022/02/17 08:58:21;;;;;;;13.85;1.88;;;;;;;7.86;74.98;100184.09;5072708;28;20075;-55
2022/02/17 09:00:49;;;;;;;13.35;1.75;;;;;;;7.91;76.18;100197.75;5068851;28;20395;-44
2022/02/17 09:03:18;;;;;;;9.40;1.60;;;;;;;8.01;74.83;100198.81;5069577;28;20150;-47
2022/02/17 09:05:47;;;;;;;9.32;1.38;;;;;;;8.10;73.89;100213.13;5071414;28;20538;-56
2022/02/17 09:08:35;;;;;;;7.70;1.50;;;;;;;8.18;73.64;100212.59;5072776;28;20454;-56
2022/02/17 09:11:04;;;;;;;12.63;1.70;;;;;;;8.20;73.41;100224.66;5072567;28;20139;-47
2022/02/17 09:13:32;;;;;;;12.82;1.30;;;;;;;8.26;70.84;100197.22;5072382;28;20033;-56
2022/02/17 09:16:01;;;;;;;10.40;1.83;;;;;;;8.20;71.27;100247.41;5072779;28;20044;-44
2022/02/17 09:18:31;;;;;;;8.63;1.40;;;;;;;8.22;70.85;100242.88;5069284;28;20136;-55
2022/02/17 09:20:59;;;;;;;10.73;1.77;;;;;;;8.26;71.70;100268.81;5069326;28;20040;-55
2022/02/17 09:23:27;;;;;;;13.27;1.70;;;;;;;8.23;70.52;100266.38;5072347;28;20538;-43
2022/02/17 09:25:55;;;;;;;8.80;1.30;;;;;;;8.17;70.20;100274.63;5072487;28;20067;-44
2022/02/17 09:28:24;;;;;;;6.10;1.33;;;;;;;8.21;72.37;100276.13;5072468;28;20499;-47
2022/02/17 09:30:52;;;;;;;11.57;1.35;;;;;;;8.22;70.97;100269.94;5072317;28;20053;-44
2022/02/17 09:33:20;;;;;;;8.40;1.33;;;;;;;8.32;70.30;100287.66;5071870;28;20051;-44
2022/02/17 09:35:49;;;;;;;6.20;1.23;;;;;;;8.42;68.51;100280.91;5071099;28;20059;-56
2022/02/17 09:38:17;;;;;;;11.88;1.70;;;;;;;8.55;67.50;100281.81;5070493;28;20479;-55
2022/02/17 09:40:46;;;;;;;9.40;1.52;;;;;;;8.78;65.54;100287.31;5068313;28;20064;-45
2022/02/17 09:43:15;;;;;;;7.55;1.02;;;;;;;8.91;65.84;100293.41;5071128;28;20043;-46
2022/02/17 09:45:46;;;;;;;10.02;1.60;;;;;;;8.82;65.02;100312.41;5072423;28;20055;-56
2022/02/17 09:48:17;;;;;;;6.35;1.00;;;;;;;8.67;64.66;100327.38;5071806;28;20044;-47
2022/02/17 09:50:50;;;;;;;5.50;1.03;;;;;;;8.92;65.26;100294.28;5069635;28;20454;-44
2022/02/17 09:53:18;;;;;;;7.63;1.50;;;;;;;9.05;63.25;100302.16;5068588;28;20044;-46
2022/02/17 09:55:47;;;;;;;6.22;1.15;;;;;;;9.02;63.25;100326.81;5070760;28;20051;-45
2022/02/17 09:58:16;;;;;;;10.30;1.38;;;;;;;9.13;62.81;100324.31;5072168;28;20066;-47
2022/02/17 10:00:45;;;;;;;13.38;1.98;;;;;;;9.18;62.14;100328.41;5071978;28;20040;-46
2022/02/17 10:03:23;;;;;;;8.52;1.45;;;;;;;9.04;61.53;100330.19;5071910;28;20391;-46
2022/02/17 10:06:07;;;;;;;11.50;1.73;;;;;;;9.26;60.58;100339.25;5072084;28;20045;-46
2022/02/17 10:08:36;;;;;;;7.05;1.25;;;;;;;9.45;60.89;100334.41;5072008;28;20509;-49
2022/02/17 10:11:05;;;;;;;13.18;1.58;;;;;;;9.57;60.97;100339.75;5072138;28;20475;-47
2022/02/17 10:13:34;;;;;;;5.40;1.02;;;;;;;9.70;59.40;100329.25;5071780;28;20090;-50
2022/02/17 10:16:03;;;;;;;10.73;1.60;;;;;;;10.05;60.19;100334.66;5071958;28;20044;-47
2022/02/17 10:18:39;;;;;;;8.30;1.30;;;;;;;10.10;57.76;100350.94;5072029;28;20071;-46
2022/02/17 10:21:13;;;;;;;8.15;1.02;;;;;;;9.87;59.27;100349.94;5071817;28;20102;-46
2022/02/17 10:23:43;;;;;;;9.30;1.25;;;;;;;10.17;59.55;100374.13;5071865;28;20040;-46
2022/02/17 10:26:14;;;;;;;11.07;1.23;;;;;;;10.12;60.42;100358.69;5071977;28;20049;-49
2022/02/17 10:28:44;;;;;;;8.95;1.40;;;;;;;10.29;60.46;100368.84;5071881;28;20048;-46
2022/02/17 10:31:23;;;;;;;6.78;1.38;;;;;;;10.00;60.05;100377.97;5071680;28;20051;-44
2022/02/17 10:33:52;;;;;;;7.28;1.27;;;;;;;10.36;60.67;100369.28;5071773;28;20046;-46
2022/02/17 10:36:34;;;;;;;10.60;1.27;;;;;;;10.56;61.48;100374.91;5070080;28;20052;-43
2022/02/17 10:39:10;;;;;;;7.03;1.30;;;;;;;10.39;61.31;100378.72;5067965;28;20540;-47
2022/02/17 10:41:46;;;;;;;9.23;1.38;;;;;;;10.39;58.88;100397.13;5070803;28;20399;-45
2022/02/17 10:44:14;;;;;;;7.25;1.10;;;;;;;10.97;60.40;100381.53;5068367;28;20522;-46
2022/02/17 10:46:42;;;;;;;11.48;1.40;;;;;;;11.02;57.13;100392.56;5071194;28;20148;-45
2022/02/17 10:49:11;;;;;;;5.22;1.15;;;;;;;11.45;56.36;100388.50;5075191;28;20040;-45
2022/02/17 10:51:41;;;;;;;10.90;1.42;;;;;;;11.40;55.10;100409.91;5075344;28;20391;-48
2022/02/17 10:54:09;;;;;;;12.15;1.65;;;;;;;11.33;53.01;100409.53;5075207;28;20055;-47
2022/02/17 10:56:38;;;;;;;7.47;1.48;;;;;;;11.49;54.58;100409.22;5075330;28;20514;-46
2022/02/17 11:00:00;;;;;;;8.90;1.30;;;;;;;11.50;53.79;100416.16;5075056;28;20521;-45
2022/02/17 11:01:57;;;;;;;9.75;1.30;;;;;;;11.61;53.08;100414.50;5075335;28;20045;-44
2022/02/17 11:04:26;;;;;;;7.78;1.05;;;;;;;11.90;52.79;100417.53;5072266;28;20044;-46
2022/02/17 11:06:56;;;;;;;7.90;1.38;;;;;;;11.78;51.79;100416.69;5070983;28;20052;-45
2022/02/17 11:09:24;;;;;;;7.38;1.13;;;;;;;12.11;52.08;100437.94;5074932;28;20056;-45
2022/02/17 11:11:54;;;;;;;7.32;1.30;;;;;;;12.21;53.12;100428.34;5074887;28;20044;-49
2022/02/17 11:14:38;;;;;;;6.60;1.30;;;;;;;12.24;51.42;100428.09;5074800;28;20079;-45
2022/02/17 11:17:07;;;;;;;7.55;1.45;;;;;;;12.51;51.36;100432.97;5074632;28;20415;-46
2022/02/17 11:19:50;;;;;;;5.05;1.20;;;;;;;12.29;49.67;100435.66;5074741;28;20053;-46
2022/02/17 11:22:22;;;;;;;5.10;1.00;;;;;;;12.08;49.02;100446.94;5073784;28;20048;-44
2022/02/17 11:24:52;;;;;;;8.88;1.55;;;;;;;12.14;50.07;100440.34;5070886;28;20094;-55
2022/02/17 11:27:22;;;;;;;7.63;1.25;;;;;;;12.52;50.30;100439.09;5073829;28;20052;-57
2022/02/17 11:29:51;;;;;;;6.50;1.42;;;;;;;12.26;49.19;100447.28;5071291;28;20048;-57
2022/02/17 11:32:23;;;;;;;9.40;1.23;;;;;;;12.21;49.46;100438.88;5070051;28;20048;-56
2022/02/17 11:34:58;;;;;;;7.32;1.58;;;;;;;12.62;49.61;100452.38;5074437;28;20044;-57
2022/02/17 11:37:49;;;;;;;10.75;1.30;;;;;;;12.76;49.99;100461.84;5074504;28;20135;-56
2022/02/17 11:40:20;;;;;;;7.30;1.30;;;;;;;12.90;48.76;100445.72;5066403;28;20052;-56
2022/02/17 11:43:02;;;;;;;10.70;1.35;;;;;;;12.95;49.35;100471.75;5071780;28;20040;-57
2022/02/17 11:45:30;;;;;;;6.97;1.35;;;;;;;12.63;47.62;100462.81;5074136;28;20136;-46